Time;durP1;ratioP1;P1;durP2;ratioP2;P2;SDS_P1;SDS_P2;PMS_P1;PMS_P2;Temp;Humidity;BMP_temperature;BMP_pressure;BME280_temperature;BME280_humidity;BME280_pressure;Samples;Min_cycle;Max_cycle;Signal;HPM_P1;HPM_P2
2024/02/14 00:01:16;;;;;;;5.43;3.03;;;5.50;99.90;;;;;;5063121;28;20311;-60
2024/02/14 00:03:44;;;;;;;3.20;2.50;;;5.50;99.90;;;;;;5062839;28;20628;-60
2024/02/14 00:06:11;;;;;;;3.57;2.33;;;5.50;99.90;;;;;;5059572;28;20198;-62
2024/02/14 00:08:38;;;;;;;3.83;2.17;;;5.50;99.90;;;;;;5059771;28;20237;-61
2024/02/14 00:11:05;;;;;;;4.83;2.40;;;5.50;99.90;;;;;;5062043;28;20273;-59
2024/02/14 00:13:33;;;;;;;3.47;2.83;;;5.50;99.90;;;;;;5063058;28;20220;-59
2024/02/14 00:16:00;;;;;;;5.60;2.67;;;5.50;99.90;;;;;;5061072;28;20209;-60
2024/02/14 00:18:27;;;;;;;4.67;2.50;;;5.50;99.90;;;;;;5059560;28;20630;-59
2024/02/14 00:20:55;;;;;;;5.13;2.50;;;5.50;99.90;;;;;;5060294;28;20209;-59
2024/02/14 00:23:22;;;;;;;4.47;2.23;;;5.60;99.90;;;;;;5062965;28;20221;-59
2024/02/14 00:25:48;;;;;;;5.60;2.30;;;5.70;99.90;;;;;;5062930;28;20205;-59
2024/02/14 00:28:15;;;;;;;3.83;2.60;;;5.80;99.90;;;;;;5059544;28;20202;-60
2024/02/14 00:30:41;;;;;;;3.50;2.23;;;5.90;99.90;;;;;;5059248;28;20206;-60
2024/02/14 00:33:08;;;;;;;4.20;2.07;;;5.90;99.90;;;;;;5065156;28;20235;-60
2024/02/14 00:35:35;;;;;;;7.63;2.33;;;5.90;99.90;;;;;;5066756;28;20205;-60
2024/02/14 00:38:03;;;;;;;4.10;2.10;;;6.00;99.90;;;;;;5064887;28;20212;-60
2024/02/14 00:40:30;;;;;;;5.37;2.47;;;6.00;99.90;;;;;;5062914;28;20212;-60
2024/02/14 00:42:56;;;;;;;3.57;2.10;;;6.00;99.90;;;;;;5063923;28;20225;-59
2024/02/14 00:45:23;;;;;;;5.23;2.70;;;5.90;99.90;;;;;;5066265;28;20641;-59
2024/02/14 00:47:50;;;;;;;3.13;2.20;;;6.00;99.90;;;;;;5066112;28;20651;-59
2024/02/14 00:50:16;;;;;;;6.87;2.77;;;5.90;99.90;;;;;;5062848;28;20694;-60
2024/02/14 00:52:43;;;;;;;5.43;2.77;;;5.90;99.90;;;;;;5062818;28;20225;-60
2024/02/14 00:55:11;;;;;;;2.90;2.20;;;6.00;99.90;;;;;;5065772;28;20707;-60
2024/02/14 00:57:38;;;;;;;5.00;2.97;;;6.00;99.90;;;;;;5066417;28;20693;-59
2024/02/14 01:00:07;;;;;;;5.13;2.63;;;6.10;99.90;;;;;;5063410;28;20204;-59
2024/02/14 01:02:33;;;;;;;4.43;2.87;;;6.10;99.90;;;;;;5062819;28;20641;-60
2024/02/14 01:05:00;;;;;;;7.17;2.60;;;6.10;99.90;;;;;;5064287;28;20232;-61
2024/02/14 01:07:27;;;;;;;2.93;2.40;;;6.10;99.90;;;;;;5066199;28;20204;-60
2024/02/14 01:09:53;;;;;;;4.00;2.63;;;6.20;99.90;;;;;;5065281;28;20205;-59
2024/02/14 01:12:21;;;;;;;5.67;2.57;;;6.20;99.90;;;;;;5062473;28;20283;-59
2024/02/14 01:14:48;;;;;;;4.57;2.63;;;6.30;99.90;;;;;;5062421;28;20197;-60
2024/02/14 01:17:15;;;;;;;6.83;2.50;;;6.40;99.90;;;;;;5054496;28;20205;-59
2024/02/14 01:19:42;;;;;;;3.77;2.60;;;6.50;99.90;;;;;;5062343;28;20208;-62
2024/02/14 01:22:08;;;;;;;4.07;2.37;;;6.50;99.90;;;;;;5065022;28;20226;-61
2024/02/14 01:24:35;;;;;;;5.10;2.13;;;6.50;99.90;;;;;;5065726;28;20282;-61
2024/02/14 01:27:02;;;;;;;5.63;1.97;;;6.70;99.90;;;;;;5063660;28;20204;-59
2024/02/14 01:29:30;;;;;;;4.57;2.20;;;6.90;99.90;;;;;;5062079;28;20212;-59
2024/02/14 01:31:57;;;;;;;4.03;2.27;;;7.10;99.90;;;;;;5063036;28;20230;-59
2024/02/14 01:34:24;;;;;;;2.97;2.07;;;7.30;99.90;;;;;;5065643;28;20205;-59
2024/02/14 01:36:51;;;;;;;3.23;2.23;;;7.40;99.90;;;;;;5065551;28;20213;-61
2024/02/14 01:39:18;;;;;;;3.20;2.20;;;7.60;99.90;;;;;;5061930;28;20211;-59
2024/02/14 01:41:48;;;;;;;6.23;2.70;;;7.70;99.90;;;;;;5061620;28;20316;-60
2024/02/14 01:44:14;;;;;;;4.57;2.40;;;7.80;99.90;;;;;;5064977;28;20270;-60
2024/02/14 01:46:43;;;;;;;4.17;2.20;;;7.80;99.90;;;;;;5065500;28;20197;-60
2024/02/14 01:49:11;;;;;;;3.63;2.17;;;8.00;99.90;;;;;;5062164;28;20249;-60
2024/02/14 01:51:40;;;;;;;4.03;2.40;;;8.10;99.90;;;;;;5061599;28;20233;-60
2024/02/14 01:54:07;;;;;;;3.87;2.30;;;8.10;99.90;;;;;;5064039;28;20210;-60
2024/02/14 01:56:34;;;;;;;4.83;2.00;;;8.20;99.90;;;;;;5065466;28;20205;-59
2024/02/14 01:59:02;;;;;;;3.07;2.10;;;8.20;99.90;;;;;;5063327;28;20569;-60
2024/02/14 02:01:28;;;;;;;4.23;2.03;;;8.20;99.90;;;;;;5061761;28;20221;-59
2024/02/14 02:03:56;;;;;;;4.10;1.90;;;8.10;99.90;;;;;;5062236;28;20283;-60
2024/02/14 02:06:23;;;;;;;4.53;2.10;;;8.10;99.90;;;;;;5065067;28;20201;-60
2024/02/14 02:08:50;;;;;;;3.97;2.10;;;8.10;99.90;;;;;;5064736;28;20265;-60
2024/02/14 02:11:16;;;;;;;4.33;2.00;;;8.20;99.90;;;;;;5053416;28;20759;-60
2024/02/14 02:13:43;;;;;;;3.03;2.10;;;8.20;99.90;;;;;;5061295;28;20201;-61
2024/02/14 02:16:11;;;;;;;4.47;1.90;;;8.30;99.90;;;;;;5063961;28;20214;-60
2024/02/14 02:18:38;;;;;;;3.43;1.83;;;8.40;99.90;;;;;;5064747;28;20205;-60
2024/02/14 02:21:06;;;;;;;5.63;2.13;;;8.50;99.90;;;;;;5062475;28;20296;-60
2024/02/14 02:23:35;;;;;;;3.03;1.93;;;8.60;99.90;;;;;;5061077;28;20209;-60
2024/02/14 02:26:01;;;;;;;3.57;2.00;;;8.70;99.90;;;;;;5062583;28;20217;-60
2024/02/14 02:28:28;;;;;;;3.60;2.10;;;8.80;99.90;;;;;;5064591;28;20224;-60
2024/02/14 02:30:55;;;;;;;4.50;2.30;;;8.80;99.90;;;;;;5063616;28;20562;-61
2024/02/14 02:33:22;;;;;;;6.70;2.00;;;8.80;99.90;;;;;;5060872;28;20276;-60
2024/02/14 02:35:49;;;;;;;4.43;2.03;;;8.80;99.90;;;;;;5060870;28;20742;-61
2024/02/14 02:38:16;;;;;;;4.33;2.27;;;8.80;99.90;;;;;;5064300;28;20292;-60
2024/02/14 02:40:45;;;;;;;3.80;2.20;;;8.90;99.90;;;;;;5064353;28;20297;-60
2024/02/14 02:43:12;;;;;;;4.73;2.50;;;8.90;99.90;;;;;;5061176;28;20241;-60
2024/02/14 02:45:38;;;;;;;4.53;2.33;;;9.00;99.90;;;;;;5060817;28;20222;-59
2024/02/14 02:48:06;;;;;;;5.90;2.40;;;9.00;99.90;;;;;;5062477;28;20641;-59
2024/02/14 02:50:33;;;;;;;5.43;2.60;;;9.10;99.90;;;;;;5063768;28;20623;-60
2024/02/14 02:53:00;;;;;;;4.13;2.30;;;9.20;99.90;;;;;;5062630;28;20228;-60
2024/02/14 02:55:27;;;;;;;3.43;2.00;;;9.30;99.90;;;;;;5059819;28;20247;-60
2024/02/14 02:57:56;;;;;;;2.90;2.10;;;9.30;99.90;;;;;;5060760;28;20209;-60
2024/02/14 03:00:22;;;;;;;4.87;1.90;;;9.30;99.90;;;;;;5063645;28;20207;-60
2024/02/14 03:02:49;;;;;;;2.63;1.90;;;9.30;99.90;;;;;;5063649;28;20270;-59
2024/02/14 03:05:18;;;;;;;3.50;2.20;;;9.30;99.90;;;;;;5060211;28;20814;-60
2024/02/14 03:07:45;;;;;;;4.03;1.87;;;9.40;99.90;;;;;;5060533;28;20280;-60
2024/02/14 03:10:13;;;;;;;4.80;2.07;;;9.40;99.90;;;;;;5062704;28;20201;-59
2024/02/14 03:12:40;;;;;;;4.93;1.87;;;9.40;99.90;;;;;;5063802;28;20221;-59
2024/02/14 03:15:10;;;;;;;3.63;2.00;;;9.40;99.90;;;;;;5061647;28;20247;-58
2024/02/14 03:17:37;;;;;;;4.00;2.03;;;9.40;99.90;;;;;;5060177;28;20359;-59
2024/02/14 03:20:10;;;;;;;4.43;2.10;;;9.40;99.90;;;;;;5061345;28;20675;-59
2024/02/14 03:22:36;;;;;;;3.80;2.07;;;9.40;99.90;;;;;;5063441;28;20779;-59
2024/02/14 03:25:03;;;;;;;2.90;1.70;;;9.40;99.90;;;;;;5061953;28;20229;-59
2024/02/14 03:27:31;;;;;;;3.63;1.77;;;9.40;99.90;;;;;;5060090;28;20232;-60
2024/02/14 03:29:59;;;;;;;3.73;2.20;;;9.40;99.90;;;;;;5060541;28;20202;-59
2024/02/14 03:32:27;;;;;;;4.27;1.90;;;9.50;99.90;;;;;;5063931;28;20229;-60
2024/02/14 03:34:54;;;;;;;4.63;1.87;;;9.60;99.90;;;;;;5063166;28;20239;-60
2024/02/14 03:37:20;;;;;;;3.63;1.77;;;9.60;99.90;;;;;;5060033;28;20209;-60
2024/02/14 03:39:47;;;;;;;3.63;2.20;;;9.50;99.90;;;;;;5059577;28;20593;-60
2024/02/14 03:42:15;;;;;;;5.03;2.37;;;9.40;99.90;;;;;;5062539;28;20235;-60
2024/02/14 03:44:42;;;;;;;4.17;2.13;;;9.30;99.90;;;;;;5062899;28;20212;-59
2024/02/14 03:47:08;;;;;;;3.57;1.90;;;9.20;99.90;;;;;;5061328;28;20204;-60
2024/02/14 03:49:36;;;;;;;3.77;2.30;;;9.00;99.90;;;;;;5059642;28;20204;-60
2024/02/14 03:52:08;;;;;;;3.73;2.10;;;8.90;99.90;;;;;;5061086;28;20233;-60
2024/02/14 03:54:35;;;;;;;5.50;2.00;;;8.90;99.90;;;;;;5063270;28;20552;-60
2024/02/14 03:57:02;;;;;;;3.53;1.70;;;8.90;99.90;;;;;;5061795;28;20679;-60
2024/02/14 03:59:28;;;;;;;3.30;1.70;;;8.90;99.90;;;;;;5059755;28;20671;-60
2024/02/14 04:01:55;;;;;;;5.40;1.77;;;8.90;99.90;;;;;;5059894;28;20247;-59
2024/02/14 04:04:22;;;;;;;3.70;1.60;;;9.00;99.90;;;;;;5063059;28;20225;-60
2024/02/14 04:06:50;;;;;;;3.77;2.13;;;9.20;99.90;;;;;;5065648;28;20262;-60
2024/02/14 04:09:17;;;;;;;2.97;1.70;;;9.30;99.90;;;;;;5063429;28;20197;-60
2024/02/14 04:11:44;;;;;;;3.83;1.87;;;9.40;99.90;;;;;;5063537;28;20271;-60
2024/02/14 04:14:10;;;;;;;4.63;2.53;;;9.50;99.90;;;;;;5065645;28;20675;-60
2024/02/14 04:16:37;;;;;;;4.20;1.97;;;9.60;99.90;;;;;;5067176;28;20205;-60
2024/02/14 04:19:04;;;;;;;4.83;2.00;;;9.70;99.90;;;;;;5065273;28;20212;-60
2024/02/14 04:21:32;;;;;;;3.37;1.70;;;9.70;99.90;;;;;;5063421;28;20631;-59
2024/02/14 04:24:00;;;;;;;3.60;1.80;;;9.70;99.90;;;;;;5063828;28;20205;-59
2024/02/14 04:26:27;;;;;;;4.00;1.87;;;9.80;99.90;;;;;;5066604;28;20224;-59
2024/02/14 04:28:53;;;;;;;2.77;1.63;;;9.70;99.90;;;;;;5066511;28;20209;-60
2024/02/14 04:31:20;;;;;;;4.43;1.73;;;9.70;99.90;;;;;;5066773;28;20228;-59
2024/02/14 04:33:51;;;;;;;5.70;1.97;;;9.70;99.90;;;;;;5066743;28;20208;-59
2024/02/14 04:36:18;;;;;;;3.63;1.77;;;9.70;99.90;;;;;;5063398;28;20208;-60
2024/02/14 04:38:45;;;;;;;3.43;1.93;;;9.80;99.90;;;;;;5062944;28;20212;-59
2024/02/14 04:41:14;;;;;;;2.87;1.60;;;9.80;99.90;;;;;;5065099;28;20225;-60
2024/02/14 04:43:41;;;;;;;6.47;3.87;;;9.90;99.90;;;;;;5066521;28;20224;-60
2024/02/14 04:46:08;;;;;;;5.17;1.80;;;9.90;99.90;;;;;;5064604;28;20611;-60
2024/02/14 04:48:35;;;;;;;7.40;2.37;;;9.90;99.90;;;;;;5063234;28;20208;-60
2024/02/14 04:51:02;;;;;;;3.17;1.70;;;9.90;99.90;;;;;;5063336;28;20216;-59
2024/02/14 04:53:29;;;;;;;4.70;1.80;;;9.90;99.90;;;;;;5065880;28;20208;-59
2024/02/14 04:55:56;;;;;;;3.77;1.73;;;9.80;99.90;;;;;;5066062;28;20197;-59
2024/02/14 04:58:26;;;;;;;3.27;1.60;;;9.80;99.90;;;;;;5062933;28;20216;-59
2024/02/14 05:00:53;;;;;;;5.37;1.90;;;9.80;99.90;;;;;;5062673;28;20259;-60
2024/02/14 05:03:21;;;;;;;4.80;2.00;;;9.80;99.90;;;;;;5065708;28;20586;-59
2024/02/14 05:05:47;;;;;;;4.13;2.10;;;9.80;99.90;;;;;;5066059;28;20256;-60
2024/02/14 05:08:14;;;;;;;2.43;1.83;;;9.90;99.90;;;;;;5063809;28;20209;-60
2024/02/14 05:10:41;;;;;;;3.80;1.80;;;10.00;99.90;;;;;;5062434;28;20591;-60
2024/02/14 05:13:07;;;;;;;2.90;1.73;;;10.00;99.90;;;;;;5064050;28;20252;-61
2024/02/14 05:15:35;;;;;;;3.17;1.57;;;10.00;99.90;;;;;;5065860;28;20220;-60
2024/02/14 05:18:04;;;;;;;4.20;1.83;;;10.00;99.90;;;;;;5064050;28;20274;-59
2024/02/14 05:20:31;;;;;;;4.67;1.70;;;10.10;99.90;;;;;;5062260;28;20697;-62
2024/02/14 05:22:58;;;;;;;6.73;1.70;;;10.10;99.90;;;;;;5062622;28;20229;-59
2024/02/14 05:25:24;;;;;;;4.20;1.97;;;10.10;99.90;;;;;;5065813;28;20217;-60
2024/02/14 05:27:51;;;;;;;4.30;1.90;;;10.10;99.90;;;;;;5065818;28;20205;-61
2024/02/14 05:30:18;;;;;;;4.50;1.80;;;10.20;99.90;;;;;;5062388;28;20259;-60
2024/02/14 05:32:46;;;;;;;2.60;1.60;;;10.20;99.90;;;;;;5061999;28;20221;-60
2024/02/14 05:35:12;;;;;;;3.67;1.63;;;10.20;99.90;;;;;;5064465;28;20217;-60
2024/02/14 05:37:39;;;;;;;2.87;1.97;;;10.20;99.90;;;;;;5065671;28;20216;-60
2024/02/14 05:40:07;;;;;;;4.00;2.03;;;10.10;99.90;;;;;;5063938;28;20638;-59
2024/02/14 05:42:34;;;;;;;2.33;1.63;;;10.10;99.90;;;;;;5061890;28;20229;-59
2024/02/14 05:45:02;;;;;;;2.33;1.50;;;10.10;99.90;;;;;;5062333;28;20275;-60
2024/02/14 05:47:29;;;;;;;4.00;1.67;;;10.20;99.90;;;;;;5065045;28;20630;-60
2024/02/14 05:49:57;;;;;;;4.73;2.87;;;10.40;99.90;;;;;;5065031;28;20209;-60
2024/02/14 05:52:24;;;;;;;5.13;2.27;;;10.40;99.90;;;;;;5053692;28;20233;-60
2024/02/14 05:54:51;;;;;;;4.27;2.00;;;10.40;99.90;;;;;;5061791;28;20587;-59
2024/02/14 05:57:17;;;;;;;3.53;1.87;;;10.40;99.90;;;;;;5064464;28;20658;-60
2024/02/14 05:59:44;;;;;;;10.30;2.40;;;10.50;99.90;;;;;;5064867;28;20251;-61
2024/02/14 06:02:11;;;;;;;3.40;1.80;;;10.60;99.90;;;;;;5062730;28;20252;-62
2024/02/14 06:04:37;;;;;;;4.10;2.13;;;10.60;99.90;;;;;;5061500;28;20635;-59
2024/02/14 06:07:06;;;;;;;3.97;2.17;;;10.60;99.90;;;;;;5062079;28;20468;-59
2024/02/14 06:09:33;;;;;;;3.07;2.13;;;10.50;99.90;;;;;;5064557;28;20200;-61
2024/02/14 06:12:00;;;;;;;3.20;1.90;;;10.50;99.90;;;;;;5064240;28;20233;-59
2024/02/14 06:14:26;;;;;;;3.57;1.97;;;10.50;99.90;;;;;;5061030;28;20205;-58
2024/02/14 06:16:53;;;;;;;3.93;1.63;;;10.50;99.90;;;;;;5061539;28;20217;-59
2024/02/14 06:19:19;;;;;;;4.87;1.67;;;10.50;99.90;;;;;;5063802;28;20197;-60
2024/02/14 06:21:46;;;;;;;3.60;2.10;;;10.50;99.90;;;;;;5064491;28;20235;-60
2024/02/14 06:24:15;;;;;;;2.70;1.67;;;10.50;99.90;;;;;;5062433;28;20219;-59
2024/02/14 06:26:41;;;;;;;3.60;1.80;;;10.60;99.90;;;;;;5061085;28;20253;-60
2024/02/14 06:29:08;;;;;;;3.37;1.80;;;10.70;99.90;;;;;;5061829;28;20216;-60
2024/02/14 06:31:35;;;;;;;7.60;4.13;;;10.80;99.90;;;;;;5064166;28;20628;-60
2024/02/14 06:34:01;;;;;;;2.80;1.60;;;10.80;99.90;;;;;;5064006;28;20209;-60
2024/02/14 06:36:28;;;;;;;6.17;1.87;;;10.80;99.90;;;;;;5060914;28;20193;-60
2024/02/14 06:38:54;;;;;;;4.80;1.73;;;10.80;99.90;;;;;;5060592;28;20210;-60
2024/02/14 06:41:22;;;;;;;4.50;1.90;;;10.90;99.90;;;;;;5063662;28;20224;-60
2024/02/14 06:43:49;;;;;;;3.90;1.90;;;10.90;99.90;;;;;;5063994;28;20208;-60
2024/02/14 06:46:16;;;;;;;5.63;2.23;;;11.00;99.90;;;;;;5061590;28;20221;-60
2024/02/14 06:48:43;;;;;;;3.73;1.63;;;11.00;99.90;;;;;;5060686;28;20431;-60
2024/02/14 06:51:09;;;;;;;3.23;1.77;;;10.90;99.90;;;;;;5061381;28;20581;-60
2024/02/14 06:53:36;;;;;;;4.10;2.17;;;10.90;99.90;;;;;;5063769;28;20674;-60
2024/02/14 06:56:03;;;;;;;2.60;1.77;;;10.80;99.90;;;;;;5063073;28;20229;-60
2024/02/14 06:58:31;;;;;;;5.03;2.00;;;10.80;99.90;;;;;;5060119;28;20271;-60
2024/02/14 07:00:57;;;;;;;2.80;1.60;;;10.80;99.90;;;;;;5059969;28;20671;-60
2024/02/14 07:03:24;;;;;;;5.17;1.70;;;10.80;99.90;;;;;;5052071;28;20197;-60
2024/02/14 07:05:51;;;;;;;3.90;1.70;;;10.90;99.90;;;;;;5060138;28;20225;-59
2024/02/14 07:08:18;;;;;;;2.07;1.40;;;11.00;99.90;;;;;;5062824;28;20209;-59
2024/02/14 07:10:45;;;;;;;2.80;1.60;;;11.10;99.90;;;;;;5063330;28;20231;-60
2024/02/14 07:13:11;;;;;;;2.67;1.60;;;10.90;99.90;;;;;;5061483;28;20588;-59
2024/02/14 07:15:39;;;;;;;3.57;2.13;;;11.00;99.90;;;;;;5060319;28;20202;-59
2024/02/14 07:18:08;;;;;;;4.10;2.03;;;11.00;99.90;;;;;;5060638;28;20675;-61
2024/02/14 07:20:34;;;;;;;3.83;1.60;;;11.10;99.90;;;;;;5063333;28;20690;-59
2024/02/14 07:23:01;;;;;;;4.70;2.60;;;11.10;99.90;;;;;;5063031;28;20224;-59
2024/02/14 07:25:28;;;;;;;9.53;4.00;;;11.10;99.90;;;;;;5059545;28;20626;-60
2024/02/14 07:27:55;;;;;;;3.43;1.70;;;11.20;99.90;;;;;;5059992;28;20319;-60
2024/02/14 07:30:21;;;;;;;4.60;1.80;;;11.20;99.90;;;;;;5062661;28;20204;-61
2024/02/14 07:32:50;;;;;;;2.73;1.53;;;11.20;99.90;;;;;;5063294;28;20225;-60
2024/02/14 07:35:17;;;;;;;3.90;1.73;;;11.30;99.90;;;;;;5060790;28;20671;-60
2024/02/14 07:37:44;;;;;;;4.47;1.67;;;11.30;99.90;;;;;;5059968;28;20232;-60
2024/02/14 07:40:11;;;;;;;4.90;1.73;;;11.30;99.90;;;;;;5060530;28;20217;-60
2024/02/14 07:42:38;;;;;;;2.80;1.50;;;11.30;99.90;;;;;;5063065;28;20229;-60
2024/02/14 07:45:06;;;;;;;4.23;1.63;;;11.30;99.90;;;;;;5062245;28;20605;-60
2024/02/14 07:47:32;;;;;;;2.37;1.77;;;11.20;99.90;;;;;;5059627;28;20220;-60
2024/02/14 07:50:02;;;;;;;7.80;4.50;;;11.30;99.90;;;;;;5059387;28;20214;-60
2024/02/14 07:52:28;;;;;;;3.03;1.80;;;11.30;99.90;;;;;;5051899;28;20225;-60
2024/02/14 07:54:56;;;;;;;2.67;1.53;;;11.40;99.90;;;;;;5059706;28;20592;-59
2024/02/14 07:57:24;;;;;;;3.20;1.60;;;11.50;99.90;;;;;;5062550;28;20197;-60
2024/02/14 07:59:51;;;;;;;4.73;1.57;;;11.50;99.90;;;;;;5062982;28;20239;-60
2024/02/14 08:02:18;;;;;;;5.03;2.10;;;11.60;99.90;;;;;;5060274;28;20702;-61
2024/02/14 08:04:45;;;;;;;4.80;2.00;;;11.80;99.90;;;;;;5059459;28;20270;-60
2024/02/14 08:07:13;;;;;;;4.30;1.80;;;11.90;99.90;;;;;;5060753;28;20221;-60
2024/02/14 08:09:40;;;;;;;3.50;1.77;;;12.00;99.90;;;;;;5062907;28;20201;-60
2024/02/14 08:12:07;;;;;;;3.87;1.67;;;12.30;99.90;;;;;;5062256;28;20224;-60
2024/02/14 08:14:33;;;;;;;1.87;1.47;;;12.50;99.90;;;;;;5059524;28;20255;-60
2024/02/14 08:17:00;;;;;;;3.07;1.70;;;12.60;99.90;;;;;;5059511;28;20205;-60
2024/02/14 08:19:27;;;;;;;6.17;1.83;;;12.50;99.90;;;;;;5059229;28;20202;-60
2024/02/14 08:21:57;;;;;;;7.20;2.40;;;12.50;99.90;;;;;;5059392;28;20225;-60
2024/02/14 08:24:25;;;;;;;2.77;2.00;;;12.60;99.90;;;;;;5062545;28;20208;-65
2024/02/14 08:26:53;;;;;;;4.17;1.70;;;12.60;99.90;;;;;;5062690;28;20225;-64
2024/02/14 08:29:19;;;;;;;8.80;6.77;;;12.60;99.90;;;;;;5060071;28;20239;-63
2024/02/14 08:31:46;;;;;;;8.77;6.63;;;12.70;99.90;;;;;;5059128;28;20228;-59
2024/02/14 08:34:13;;;;;;;3.63;2.23;;;12.80;99.90;;;;;;5060545;28;20220;-58
2024/02/14 08:36:41;;;;;;;3.43;2.03;;;12.90;99.90;;;;;;5062732;28;20678;-60
2024/02/14 08:39:09;;;;;;;3.23;1.53;;;13.00;99.90;;;;;;5061865;28;20266;-59
2024/02/14 08:41:37;;;;;;;3.17;1.77;;;13.10;99.90;;;;;;5059086;28;20732;-58
2024/02/14 08:44:04;;;;;;;2.23;1.50;;;13.20;99.90;;;;;;5059215;28;20213;-58
2024/02/14 08:46:31;;;;;;;3.00;1.73;;;13.40;99.90;;;;;;5062448;28;20725;-59
2024/02/14 08:48:59;;;;;;;4.80;1.60;;;13.40;99.90;;;;;;5062100;28;20201;-58
2024/02/14 08:51:25;;;;;;;3.20;1.60;;;13.40;99.90;;;;;;5059054;28;20615;-58
2024/02/14 08:53:54;;;;;;;4.17;1.47;;;13.40;99.90;;;;;;5061324;28;20202;-59
2024/02/14 08:56:21;;;;;;;3.63;1.93;;;13.50;99.90;;;;;;5065272;28;20201;-59
2024/02/14 08:58:49;;;;;;;2.10;1.40;;;13.60;99.90;;;;;;5057329;28;20292;-62
2024/02/14 09:01:16;;;;;;;3.97;1.73;;;13.60;99.90;;;;;;5063663;28;20236;-59
2024/02/14 09:03:47;;;;;;;3.20;2.00;;;13.70;99.90;;;;;;5065959;28;20691;-62
2024/02/14 09:06:14;;;;;;;3.13;1.70;;;13.70;99.90;;;;;;5064456;28;20224;-63
2024/02/14 09:08:41;;;;;;;3.43;1.87;;;13.80;99.90;;;;;;5062574;28;20212;-61
2024/02/14 09:11:08;;;;;;;3.30;1.50;;;13.90;99.90;;;;;;5062562;28;20335;-61
2024/02/14 09:13:35;;;;;;;3.33;1.53;;;14.00;99.90;;;;;;5065940;28;20243;-61
2024/02/14 09:16:03;;;;;;;6.60;1.60;;;14.10;99.90;;;;;;5065505;28;20211;-60
2024/02/14 09:18:31;;;;;;;4.73;3.13;;;14.20;99.90;;;;;;5065596;28;20208;-61
2024/02/14 09:20:58;;;;;;;2.80;1.77;;;14.30;99.90;;;;;;5065374;28;20205;-62
2024/02/14 09:23:25;;;;;;;3.30;1.50;;;14.40;99.90;;;;;;5062507;28;20216;-62
2024/02/14 09:25:51;;;;;;;2.37;1.20;;;14.40;99.90;;;;;;5062188;28;20214;-66
2024/02/14 09:28:19;;;;;;;2.63;1.50;;;14.40;99.90;;;;;;5063953;28;20209;-65
2024/02/14 09:30:45;;;;;;;2.07;1.50;;;14.50;99.90;;;;;;5065485;28;20204;-65
2024/02/14 09:33:14;;;;;;;2.10;1.50;;;14.50;99.90;;;;;;5064135;28;20229;-64
2024/02/14 09:35:44;;;;;;;25.33;20.33;;;14.50;99.90;;;;;;5061701;28;20243;-65
2024/02/14 09:38:11;;;;;;;4.57;2.17;;;14.70;99.90;;;;;;5062563;28;20668;-59
2024/02/14 09:40:37;;;;;;;4.67;2.00;;;14.80;99.90;;;;;;5065059;28;20201;-59
2024/02/14 09:43:07;;;;;;;5.35;2.72;;;15.00;99.90;;;;;;5065309;28;20278;-57
2024/02/14 09:45:34;;;;;;;3.30;1.70;;;15.10;99.90;;;;;;5062220;28;20229;-59
2024/02/14 09:48:01;;;;;;;5.37;1.90;;;15.10;99.90;;;;;;5061099;28;20228;-59
2024/02/14 09:50:32;;;;;;;3.60;1.80;;;15.10;99.90;;;;;;5064808;28;20197;-64
2024/02/14 09:52:59;;;;;;;3.97;1.60;;;15.20;99.90;;;;;;5066007;28;20229;-62
2024/02/14 09:55:26;;;;;;;3.47;1.65;;;15.30;99.90;;;;;;5064300;28;20615;-63
2024/02/14 09:57:55;;;;;;;4.28;2.38;;;15.40;99.90;;;;;;5053635;28;20733;-62
2024/02/14 10:00:22;;;;;;;6.47;2.47;;;15.40;99.90;;;;;;5050975;28;20259;-63
2024/02/14 10:02:49;;;;;;;6.85;5.00;;;15.40;99.90;;;;;;5051789;28;20229;-63
2024/02/14 10:05:16;;;;;;;3.35;2.28;;;15.30;99.90;;;;;;5051794;28;20559;-66
2024/02/14 10:07:45;;;;;;;4.18;1.75;;;15.30;99.90;;;;;;5052959;28;20225;-62
2024/02/14 10:10:13;;;;;;;4.88;1.60;;;15.30;99.90;;;;;;5052752;28;20661;-63
2024/02/14 10:12:40;;;;;;;3.70;1.90;;;15.20;99.90;;;;;;5052817;28;20287;-64
2024/02/14 10:15:08;;;;;;;4.15;1.50;;;15.20;99.90;;;;;;5052724;28;20267;-62
2024/02/14 10:17:36;;;;;;;2.72;1.60;;;15.10;99.90;;;;;;5053347;28;20718;-63
2024/02/14 10:20:06;;;;;;;3.38;1.42;;;15.20;99.90;;;;;;5052729;28;20667;-65
2024/02/14 10:22:36;;;;;;;3.55;1.35;;;15.50;99.90;;;;;;5060422;28;20692;-63
2024/02/14 10:25:08;;;;;;;2.47;1.58;;;15.80;99.90;;;;;;5052745;28;20214;-62
2024/02/14 10:27:36;;;;;;;5.60;1.73;;;16.00;99.90;;;;;;5045318;28;20275;-64
2024/02/14 10:30:04;;;;;;;4.07;1.38;;;16.20;99.90;;;;;;5052464;28;20672;-63
2024/02/14 10:32:30;;;;;;;5.00;2.35;;;16.30;99.90;;;;;;5052749;28;20222;-62
2024/02/14 10:34:58;;;;;;;2.40;1.55;;;16.60;99.90;;;;;;5052461;28;20209;-62
2024/02/14 10:37:26;;;;;;;2.83;1.75;;;16.80;99.90;;;;;;5052085;28;20676;-62
2024/02/14 10:39:56;;;;;;;2.53;1.70;;;16.90;99.90;;;;;;5052591;28;20218;-62
2024/02/14 10:42:24;;;;;;;3.28;1.63;;;16.90;99.90;;;;;;5051931;28;20730;-62
2024/02/14 10:44:52;;;;;;;3.63;1.40;;;16.90;99.90;;;;;;5052313;28;20220;-62
2024/02/14 10:47:21;;;;;;;1.88;1.40;;;17.10;99.90;;;;;;5051764;28;20233;-62
2024/02/14 10:49:51;;;;;;;1.85;1.35;;;17.40;99.90;;;;;;5051335;28;20209;-62
2024/02/14 10:52:19;;;;;;;1.90;1.70;;;17.60;99.90;;;;;;5051744;28;20233;-62
2024/02/14 10:54:53;;;;;;;1.98;1.50;;;17.80;99.90;;;;;;5051932;28;20240;-62
2024/02/14 10:57:22;;;;;;;4.22;1.33;;;17.90;99.90;;;;;;5052066;28;20300;-63
2024/02/14 10:59:50;;;;;;;1.92;1.00;;;17.90;99.90;;;;;;5052278;28;20217;-61
2024/02/14 11:02:18;;;;;;;5.32;1.48;;;17.80;99.90;;;;;;5051332;28;20707;-62
2024/02/14 11:04:46;;;;;;;3.28;1.40;;;17.70;99.90;;;;;;5052026;28;20209;-62
2024/02/14 11:07:15;;;;;;;8.10;4.40;;;17.50;99.90;;;;;;5051731;28;20231;-62
2024/02/14 11:09:41;;;;;;;3.30;1.58;;;17.40;99.90;;;;;;5051851;28;20588;-62
2024/02/14 11:12:09;;;;;;;2.90;1.40;;;17.40;99.90;;;;;;5051665;28;20358;-62
2024/02/14 11:14:39;;;;;;;2.33;1.20;;;17.40;99.90;;;;;;5054909;28;20622;-62
2024/02/14 11:17:10;;;;;;;2.88;1.23;;;17.50;99.90;;;;;;5054711;28;20205;-60
2024/02/14 11:19:37;;;;;;;2.05;0.90;;;17.60;99.90;;;;;;5052511;28;20238;-59
2024/02/14 11:22:14;;;;;;;6.88;5.22;;;17.60;99.90;;;;;;5060069;28;20232;-59
2024/02/14 11:24:41;;;;;;;2.75;1.00;;;17.60;99.90;;;;;;5053185;28;20201;-59
2024/02/14 11:27:12;;;;;;;3.72;1.30;;;17.60;99.90;;;;;;5059971;28;20260;-60
2024/02/14 11:29:41;;;;;;;2.30;1.10;;;17.70;99.90;;;;;;5063530;28;20232;-60
2024/02/14 11:32:11;;;;;;;1.65;1.00;;;17.80;99.90;;;;;;5063320;28;20641;-61
2024/02/14 11:34:39;;;;;;;1.92;1.10;;;17.90;99.90;;;;;;5060274;28;20249;-61
2024/02/14 11:37:06;;;;;;;2.15;1.10;;;17.80;99.90;;;;;;5059977;28;20209;-61
2024/02/14 11:39:34;;;;;;;5.32;1.02;;;17.60;99.90;;;;;;5063018;28;20274;-60
2024/02/14 11:42:01;;;;;;;2.60;1.13;;;17.50;99.90;;;;;;5063368;28;20225;-60
2024/02/14 11:44:28;;;;;;;2.13;1.40;;;17.50;99.90;;;;;;5060480;28;20218;-60
2024/02/14 11:46:55;;;;;;;1.73;1.30;;;17.40;99.90;;;;;;5059914;28;20275;-60
2024/02/14 11:49:23;;;;;;;3.22;1.25;;;17.30;99.90;;;;;;5061348;28;20213;-60
2024/02/14 11:51:49;;;;;;;4.22;1.30;;;17.30;99.90;;;;;;5063056;28;20780;-60
2024/02/14 11:54:18;;;;;;;1.92;1.20;;;17.30;99.90;;;;;;5061832;28;20611;-60
2024/02/14 11:56:44;;;;;;;2.95;1.90;;;17.20;99.90;;;;;;5059850;28;20694;-60
2024/02/14 11:59:11;;;;;;;5.00;2.97;;;17.10;99.90;;;;;;5059996;28;20212;-60
2024/02/14 12:01:39;;;;;;;3.10;1.73;;;17.10;99.90;;;;;;5063173;28;20230;-60
2024/02/14 12:04:08;;;;;;;4.47;3.03;;;17.10;99.90;;;;;;5063376;28;20209;-59
2024/02/14 12:06:37;;;;;;;3.38;2.10;;;17.10;99.90;;;;;;5063068;28;20247;-60
2024/02/14 12:09:05;;;;;;;5.90;2.47;;;17.10;99.90;;;;;;5063213;28;20215;-59
2024/02/14 12:11:33;;;;;;;3.20;2.00;;;17.10;99.90;;;;;;5059785;28;20256;-60
2024/02/14 12:14:02;;;;;;;4.25;2.28;;;17.10;99.90;;;;;;5059723;28;20233;-59
2024/02/14 12:16:29;;;;;;;3.70;1.85;;;17.10;99.90;;;;;;5062743;28;20308;-60
2024/02/14 12:19:06;;;;;;;2.80;2.40;;;17.10;99.90;;;;;;5063114;28;20251;-60
2024/02/14 12:21:36;;;;;;;2.08;1.50;;;17.10;99.90;;;;;;5059626;28;20271;-61
2024/02/14 12:24:03;;;;;;;2.15;1.65;;;17.10;99.90;;;;;;5060278;28;20208;-58
2024/02/14 12:26:31;;;;;;;1.50;1.38;;;17.10;99.90;;;;;;5062959;28;20225;-59
2024/02/14 12:28:58;;;;;;;1.98;1.10;;;17.10;99.90;;;;;;5066801;28;20313;-59
2024/02/14 12:31:25;;;;;;;2.92;1.70;;;17.20;99.90;;;;;;5064651;28;20240;-59
2024/02/14 12:33:55;;;;;;;1.98;1.23;;;17.30;99.90;;;;;;5063244;28;20205;-60
2024/02/14 12:36:22;;;;;;;2.38;1.02;;;17.40;99.90;;;;;;5065275;28;20278;-61
2024/02/14 12:38:51;;;;;;;1.90;1.10;;;17.30;99.90;;;;;;5066874;28;20197;-60
2024/02/14 12:41:18;;;;;;;2.08;0.90;;;17.30;99.90;;;;;;5065208;28;20307;-59
2024/02/14 12:43:45;;;;;;;2.88;1.23;;;17.30;99.90;;;;;;5063060;28;20706;-60
2024/02/14 12:46:11;;;;;;;1.52;1.00;;;17.30;99.90;;;;;;5063504;28;20209;-59
2024/02/14 12:48:38;;;;;;;3.13;1.17;;;17.20;99.90;;;;;;5066983;28;20236;-61
2024/02/14 12:51:05;;;;;;;1.30;0.80;;;17.20;99.90;;;;;;5066025;28;20691;-61